createdAt,value
2019-03-08T00:02:21.590Z,8.30
2019-03-08T00:07:26.430Z,8.30
2019-03-08T00:12:31.572Z,8.30
2019-03-08T00:17:36.388Z,8.20
2019-03-08T00:22:41.364Z,8.20
2019-03-08T00:27:46.203Z,8.20
2019-03-08T00:32:51.038Z,8.10
2019-03-08T00:37:55.888Z,7.90
2019-03-08T00:43:01.003Z,7.80
2019-03-08T00:48:05.874Z,7.80
2019-03-08T00:53:10.586Z,7.70
2019-03-08T00:58:15.640Z,7.60
2019-03-08T01:03:20.505Z,7.50
2019-03-08T01:08:25.293Z,7.40
2019-03-08T01:13:30.230Z,7.40
2019-03-08T01:18:35.022Z,7.40
2019-03-08T01:23:39.919Z,7.50
2019-03-08T01:28:44.772Z,7.60
2019-03-08T01:33:49.559Z,7.60
2019-03-08T01:38:54.471Z,7.50
2019-03-08T01:43:59.342Z,7.40
2019-03-08T01:49:04.179Z,7.40
2019-03-08T01:54:09.252Z,7.30
2019-03-08T01:59:14.112Z,7.30
2019-03-08T02:04:18.974Z,7.20
2019-03-08T02:09:24.645Z,7.20
2019-03-08T02:14:29.552Z,7.20
2019-03-08T02:19:34.492Z,7.20
2019-03-08T02:24:39.358Z,7.10
2019-03-08T02:29:44.375Z,7.10
2019-03-08T02:34:49.595Z,7.10
2019-03-08T02:39:54.839Z,7.00
2019-03-08T02:44:59.769Z,7.00
2019-03-08T02:50:05.303Z,7.10
2019-03-08T02:55:10.563Z,7.00
2019-03-08T03:00:17.478Z,7.00
2019-03-08T03:05:22.319Z,7.00
2019-03-08T03:10:27.174Z,6.90
2019-03-08T03:15:32.015Z,6.90
2019-03-08T03:20:36.793Z,6.90
2019-03-08T03:25:41.751Z,6.90
2019-03-08T03:30:46.531Z,6.80
2019-03-08T03:35:51.594Z,6.70
2019-03-08T03:40:56.427Z,6.70
2019-03-08T03:46:01.239Z,6.70
2019-03-08T03:51:06.035Z,6.60
2019-03-08T03:56:10.781Z,6.50
2019-03-08T04:01:29.100Z,6.50
2019-03-08T04:06:33.919Z,6.40
2019-03-08T04:11:38.739Z,6.40
2019-03-08T04:16:43.565Z,6.40
2019-03-08T04:21:48.320Z,6.30
2019-03-08T04:26:53.211Z,6.30
2019-03-08T04:31:58.054Z,6.30
2019-03-08T04:37:02.796Z,6.30
2019-03-08T04:42:07.817Z,6.30
2019-03-08T04:47:12.574Z,6.30
2019-03-08T04:52:17.365Z,6.30
2019-03-08T04:57:22.141Z,6.30
2019-03-08T05:02:27.010Z,6.20
2019-03-08T05:07:31.805Z,6.30
2019-03-08T05:12:36.659Z,6.30
2019-03-08T05:17:41.510Z,6.40
2019-03-08T05:22:46.276Z,6.40
2019-03-08T05:27:51.333Z,6.40
2019-03-08T05:32:56.187Z,6.40
2019-03-08T05:38:00.962Z,6.40
2019-03-08T05:43:05.686Z,6.40
2019-03-08T05:48:10.541Z,6.50
2019-03-08T05:53:16.796Z,6.60
2019-03-08T05:58:21.569Z,6.60
2019-03-08T06:03:26.740Z,6.70
2019-03-08T06:08:33.119Z,6.80
2019-03-08T06:13:38.206Z,7.00
2019-03-08T06:18:44.346Z,7.20
2019-03-08T06:23:49.160Z,7.40
2019-03-08T06:28:54.098Z,7.60
2019-03-08T06:33:58.929Z,7.70
2019-03-08T06:39:04.829Z,7.90
2019-03-08T06:44:09.582Z,8.10
2019-03-08T06:49:15.702Z,8.20
2019-03-08T06:54:20.848Z,8.30
2019-03-08T06:59:27.304Z,8.50
2019-03-08T07:04:32.128Z,8.60
2019-03-08T07:09:36.951Z,8.80
2019-03-08T07:14:42.839Z,8.90
2019-03-08T07:19:51.998Z,9.10
2019-03-08T07:24:58.411Z,9.20
2019-03-08T07:30:05.069Z,9.40
2019-03-08T07:35:11.547Z,9.50
2019-03-08T07:40:34.393Z,9.60
2019-03-08T07:45:44.348Z,9.80
2019-03-08T07:51:03.069Z,10.00
2019-03-08T07:56:25.543Z,10.10
2019-03-08T08:01:34.875Z,10.00
2019-03-08T08:06:41.350Z,10.40
2019-03-08T08:11:47.811Z,10.60
2019-03-08T08:17:09.098Z,10.60
2019-03-08T08:22:15.578Z,10.90
2019-03-08T08:27:24.802Z,10.80
2019-03-08T08:32:34.064Z,10.80
2019-03-08T08:37:46.664Z,10.50
2019-03-08T08:43:10.975Z,10.90
2019-03-08T08:48:23.155Z,11.20
2019-03-08T08:53:32.560Z,11.60
2019-03-08T08:58:52.376Z,11.40
2019-03-08T09:04:07.700Z,11.10
2019-03-08T09:09:14.644Z,10.80
2019-03-08T09:14:26.839Z,10.90
2019-03-08T09:19:45.468Z,10.90
2019-03-08T09:24:51.856Z,10.70
2019-03-08T09:29:59.281Z,10.60
2019-03-08T09:35:15.180Z,10.60
2019-03-08T09:40:39.652Z,10.60
2019-03-08T09:46:00.887Z,10.80
2019-03-08T09:51:13.140Z,10.90
2019-03-08T09:56:18.731Z,11.00
2019-03-08T10:01:25.138Z,11.00
2019-03-08T10:06:31.561Z,11.30
2019-03-08T10:11:50.250Z,11.60
2019-03-08T10:17:05.523Z,11.50
2019-03-08T10:22:14.750Z,11.40
2019-03-08T10:27:21.230Z,11.20
2019-03-08T10:32:37.417Z,11.10
2019-03-08T10:37:57.200Z,10.70
2019-03-08T10:43:09.325Z,10.60
2019-03-08T10:48:18.669Z,10.70
2019-03-08T10:53:37.495Z,10.80
2019-03-08T10:58:46.907Z,10.70
2019-03-08T11:03:53.378Z,10.50
2019-03-08T11:09:12.839Z,10.40
2019-03-08T11:14:19.329Z,10.10
2019-03-08T11:19:31.670Z,9.90
2019-03-08T11:24:38.175Z,9.80
2019-03-08T11:29:59.717Z,9.80
2019-03-08T11:35:07.419Z,9.80
2019-03-08T11:40:18.720Z,9.80
2019-03-08T11:45:28.214Z,9.90
2019-03-08T11:50:50.675Z,10.00
2019-03-08T11:55:57.070Z,10.00
2019-03-08T12:01:03.524Z,10.10
2019-03-08T12:06:12.968Z,10.20
2019-03-08T12:11:19.434Z,10.40
2019-03-08T12:16:42.018Z,10.50
2019-03-08T12:21:51.613Z,10.60
2019-03-08T12:26:58.094Z,10.60
2019-03-08T12:32:19.835Z,10.80
2019-03-08T12:37:29.234Z,10.60
2019-03-08T12:42:47.542Z,10.40
2019-03-08T12:48:10.105Z,10.50
2019-03-08T12:53:16.507Z,10.60
2019-03-08T12:58:34.764Z,10.80
2019-03-08T13:03:56.938Z,10.80
2019-03-08T13:09:06.901Z,10.80
2019-03-08T13:14:12.209Z,10.70
2019-03-08T13:19:17.022Z,10.70
2019-03-08T13:24:21.878Z,10.70
2019-03-08T13:29:26.729Z,10.80
2019-03-08T13:34:31.574Z,10.90
2019-03-08T13:39:36.352Z,10.80
2019-03-08T13:44:41.208Z,10.70
2019-03-08T13:49:46.041Z,10.30
2019-03-08T13:54:51.086Z,10.40
2019-03-08T13:59:56.190Z,10.50
2019-03-08T14:05:00.981Z,10.40
2019-03-08T14:10:17.462Z,10.20
2019-03-08T14:15:22.414Z,10.10
2019-03-08T14:20:28.175Z,10.10
2019-03-08T14:25:33.582Z,10.00
2019-03-08T14:30:45.754Z,9.90
2019-03-08T14:35:50.616Z,9.90
2019-03-08T14:40:59.940Z,9.70
2019-03-08T14:46:17.190Z,9.60
2019-03-08T14:51:21.779Z,9.40
2019-03-08T14:56:26.670Z,9.10
2019-03-08T15:01:31.698Z,9.00
2019-03-08T15:06:36.488Z,9.00
2019-03-08T15:11:42.856Z,9.20
2019-03-08T15:16:48.491Z,9.20
2019-03-08T15:21:53.402Z,9.10
2019-03-08T15:26:58.260Z,9.20
2019-03-08T15:32:03.196Z,9.20
2019-03-08T15:37:08.028Z,9.10
2019-03-08T15:42:12.856Z,9.00
2019-03-08T15:53:31.866Z,9.20
2019-03-08T15:58:36.627Z,9.40
2019-03-08T16:03:41.588Z,9.40
2019-03-08T16:08:46.403Z,9.40
2019-03-08T16:13:51.507Z,9.30
2019-03-08T16:18:56.403Z,9.20
2019-03-08T16:24:01.238Z,9.10
2019-03-08T16:29:05.902Z,9.00
2019-03-08T16:34:12.339Z,8.90
2019-03-08T16:39:24.179Z,8.90
2019-03-08T16:44:46.116Z,8.80
2019-03-08T16:49:53.193Z,8.80
2019-03-08T16:55:05.230Z,8.80
2019-03-08T17:00:23.549Z,8.70
2019-03-08T17:05:33.090Z,8.80
2019-03-08T17:10:45.615Z,8.60
2019-03-08T17:15:52.098Z,8.50
2019-03-08T17:20:58.821Z,8.50
2019-03-08T17:26:14.120Z,8.40
2019-03-08T17:31:23.547Z,8.30
2019-03-08T17:36:44.618Z,8.20
2019-03-08T17:41:51.030Z,8.00
2019-03-08T17:47:13.538Z,7.80
2019-03-08T17:52:20.189Z,7.70
2019-03-08T17:57:26.675Z,7.60
2019-03-08T18:02:51.086Z,7.50
2019-03-08T18:08:00.322Z,7.40
2019-03-08T18:13:15.869Z,7.40
2019-03-08T18:18:38.761Z,7.40
2019-03-08T18:24:11.413Z,7.40
2019-03-08T18:29:44.176Z,7.30
2019-03-08T18:34:57.011Z,7.30
2019-03-08T18:40:09.201Z,7.30
2019-03-08T18:45:16.076Z,7.30
2019-03-08T18:50:24.955Z,7.20
2019-03-08T18:55:34.562Z,7.20
2019-03-08T19:00:49.806Z,7.10
2019-03-08T19:06:11.283Z,7.00
2019-03-08T19:11:20.507Z,6.90
2019-03-08T19:16:27.172Z,6.90
2019-03-08T19:21:39.070Z,6.80
2019-03-08T19:26:51.396Z,6.70
2019-03-08T19:32:13.800Z,6.60
2019-03-08T19:37:36.402Z,6.50
2019-03-08T19:42:48.708Z,6.50
2019-03-08T19:47:57.640Z,6.60
2019-03-08T19:53:04.134Z,6.60
2019-03-08T19:58:25.313Z,6.70
2019-03-08T20:03:31.801Z,6.60
2019-03-08T20:08:53.179Z,6.50
2019-03-08T20:14:05.436Z,6.50
2019-03-08T20:19:20.580Z,6.40
2019-03-08T20:24:35.624Z,6.40
2019-03-08T20:29:48.569Z,6.20
2019-03-08T20:34:54.974Z,6.10
2019-03-08T20:40:15.554Z,6.00
2019-03-08T20:45:27.478Z,5.90
2019-03-08T20:50:32.567Z,5.90
2019-03-08T20:55:37.396Z,5.70
2019-03-08T21:00:42.152Z,5.60
2019-03-08T21:05:47.011Z,5.40
2019-03-08T21:10:51.845Z,5.40
2019-03-08T21:15:57.215Z,5.40
2019-03-08T21:21:03.540Z,5.40
2019-03-08T21:26:08.378Z,5.40
2019-03-08T21:31:13.428Z,5.30
2019-03-08T21:36:18.356Z,5.30
2019-03-08T21:41:23.323Z,5.20
2019-03-08T21:46:28.239Z,5.20
2019-03-08T21:51:33.075Z,5.10
2019-03-08T21:56:37.896Z,5.00
2019-03-08T22:01:42.724Z,5.00
2019-03-08T22:06:47.480Z,4.80
2019-03-08T22:11:52.258Z,4.70
2019-03-08T22:16:57.209Z,4.60
2019-03-08T22:22:01.908Z,4.40
2019-03-08T22:27:06.750Z,4.30
2019-03-08T22:32:11.585Z,4.10
2019-03-08T22:37:16.436Z,4.00
2019-03-08T22:42:21.475Z,4.10
2019-03-08T22:47:26.224Z,4.00
2019-03-08T22:52:31.065Z,4.00
2019-03-08T22:57:35.884Z,3.90
2019-03-08T23:02:40.712Z,3.80
2019-03-08T23:07:45.743Z,3.70
2019-03-08T23:12:50.577Z,3.70
2019-03-08T23:17:55.532Z,3.70
2019-03-08T23:23:00.306Z,3.70
2019-03-08T23:28:18.811Z,3.80
2019-03-08T23:33:23.642Z,3.70
2019-03-08T23:38:28.554Z,3.70
2019-03-08T23:43:33.402Z,3.70
2019-03-08T23:48:38.162Z,3.70
2019-03-08T23:53:42.924Z,3.60
2019-03-08T23:58:47.935Z,3.50
